Startpagina
METAR-TAF:

METAR-TAF

Vliegvelden :

Luchthaven Kaunas

Kaunas, Litouwen

breedte: 54-54N, lengte: 023-55-12E, hoogte: 77 m

Actueel weer

Dit bericht is 15 minuten geleden gemaakt, om 19:20 UTC
Wind 7 kt uit het westen
Temperatuur 11°C
Vochtigheid 71%
Druk 1023 hPa
Zicht 10 km of meer
geen wolken onder 1500 m en geen cumulonimbus

METAR: EYKA 181920Z 28007KT CAVOK 11/06 Q1023

Tijdstip: 22:35 (19:35 UTC)

Verwachting

Dit bericht is 2 uur en het 35 minuten geleden gemaakt, om 17:00 UTC
Verwachting geldig van 18 om 18 UTC tot 19 om 18 UTC
Wind 7 kt uit het westen
Zicht: 9000 m
Tijdelijke
van 19 om 00 UTC tot 19 om 07 UTC
Zicht: 3000 m
Verspreide wolken op 200 ft
Ondiepe mist, nevel

TAF: EYKA 181700Z 1818/1918 27007KT 9000 NSC TEMPO 1900/1907 3000 MIFG BR SCT002

Waarnemingen en weersverwachtingen van meer dan 4000 vliegvelden (METAR en TAF).

De beschikbare stations zijn de gele en rode punten op de kaart.

Ga met uw muis naar het station om de naam te zien.

Klik dan om waarnemingen en weersverwachtingen te zien.

kaart wijzigen: klik op de groene knoppen met een zwart kruis om in te zoomen, op de groene knop met een streepje om uit te zoomen of op de groene pijlen voor aangrenzende kaarten.


METAR-TAF: